sensor_id;sensor_type;location;lat;lon;timestamp;pressure;altitude;pressure_sealevel;temperature
28803;BMP280;15949;55.656;37.422;2022-09-09T17:26:07;100555.06;;;6.20
28803;BMP280;15949;55.656;37.422;2022-09-09T17:31:17;100562.53;;;6.07
28803;BMP280;15949;55.656;37.422;2022-09-09T17:36:25;100563.19;;;6.00
28803;BMP280;15949;55.656;37.422;2022-09-09T17:41:33;100561.59;;;5.92
28803;BMP280;15949;55.656;37.422;2022-09-09T17:46:40;100572.19;;;5.92
28803;BMP280;15949;55.656;37.422;2022-09-09T17:51:46;100572.13;;;5.85
28803;BMP280;15949;55.656;37.422;2022-09-09T17:56:52;100569.03;;;5.76
28803;BMP280;15949;55.656;37.422;2022-09-09T18:01:58;100575.28;;;5.61
28803;BMP280;15949;55.656;37.422;2022-09-09T18:07:04;100568.03;;;5.54
28803;BMP280;15949;55.656;37.422;2022-09-09T18:12:10;100558.91;;;5.48
28803;BMP280;15949;55.656;37.422;2022-09-09T18:17:15;100561.06;;;5.39
28803;BMP280;15949;55.656;37.422;2022-09-09T18:22:21;100565.56;;;5.38
28803;BMP280;15949;55.656;37.422;2022-09-09T18:27:27;100571.56;;;5.35
28803;BMP280;15949;55.656;37.422;2022-09-09T18:32:33;100573.41;;;5.31
28803;BMP280;15949;55.656;37.422;2022-09-09T18:37:39;100567.69;;;5.29
28803;BMP280;15949;55.656;37.422;2022-09-09T18:42:45;100571.75;;;5.19
28803;BMP280;15949;55.656;37.422;2022-09-09T18:47:51;100578.47;;;5.13
28803;BMP280;15949;55.656;37.422;2022-09-09T18:52:56;100583.25;;;5.07
28803;BMP280;15949;55.656;37.422;2022-09-09T18:58:02;100578.31;;;5.02
28803;BMP280;15949;55.656;37.422;2022-09-09T19:03:08;100585.41;;;4.98
28803;BMP280;15949;55.656;37.422;2022-09-09T19:08:13;100576.28;;;4.92
28803;BMP280;15949;55.656;37.422;2022-09-09T19:13:19;100579.53;;;4.82
28803;BMP280;15949;55.656;37.422;2022-09-09T19:18:25;100579.06;;;4.76
28803;BMP280;15949;55.656;37.422;2022-09-09T19:23:31;100589.13;;;4.67
28803;BMP280;15949;55.656;37.422;2022-09-09T19:28:37;100581.84;;;4.60
28803;BMP280;15949;55.656;37.422;2022-09-09T19:33:45;100583.25;;;4.54
28803;BMP280;15949;55.656;37.422;2022-09-09T19:38:52;100579.72;;;4.46
28803;BMP280;15949;55.656;37.422;2022-09-09T19:44:00;100586.00;;;4.38
28803;BMP280;15949;55.656;37.422;2022-09-09T19:49:06;100587.38;;;4.32
28803;BMP280;15949;55.656;37.422;2022-09-09T19:54:12;100588.03;;;4.26
28803;BMP280;15949;55.656;37.422;2022-09-09T19:59:20;100604.56;;;4.22
28803;BMP280;15949;55.656;37.422;2022-09-09T20:04:27;100609.34;;;4.17
28803;BMP280;15949;55.656;37.422;2022-09-09T20:09:32;100608.91;;;4.11
28803;BMP280;15949;55.656;37.422;2022-09-09T20:14:38;100610.69;;;4.07
28803;BMP280;15949;55.656;37.422;2022-09-09T20:19:43;100618.50;;;4.03
28803;BMP280;15949;55.656;37.422;2022-09-09T20:24:50;100621.53;;;4.02
28803;BMP280;15949;55.656;37.422;2022-09-09T20:29:56;100616.09;;;3.95
28803;BMP280;15949;55.656;37.422;2022-09-09T20:35:02;100621.31;;;3.91
28803;BMP280;15949;55.656;37.422;2022-09-09T20:40:08;100619.72;;;3.87
28803;BMP280;15949;55.656;37.422;2022-09-09T20:45:14;100621.53;;;3.83
28803;BMP280;15949;55.656;37.422;2022-09-09T20:50:21;100636.75;;;3.73
28803;BMP280;15949;55.656;37.422;2022-09-09T20:55:26;100627.34;;;3.72
28803;BMP280;15949;55.656;37.422;2022-09-09T21:00:32;100624.28;;;3.70
28803;BMP280;15949;55.656;37.422;2022-09-09T21:05:38;100625.38;;;3.69
28803;BMP280;15949;55.656;37.422;2022-09-09T21:10:43;100620.38;;;3.64
28803;BMP280;15949;55.656;37.422;2022-09-09T21:15:51;100627.03;;;3.58
28803;BMP280;15949;55.656;37.422;2022-09-09T21:20:57;100635.69;;;3.58
28803;BMP280;15949;55.656;37.422;2022-09-09T21:26:03;100630.78;;;3.57
28803;BMP280;15949;55.656;37.422;2022-09-09T21:31:14;100634.78;;;3.51
28803;BMP280;15949;55.656;37.422;2022-09-09T21:36:20;100636.91;;;3.45
28803;BMP280;15949;55.656;37.422;2022-09-09T21:41:25;100634.22;;;3.42
28803;BMP280;15949;55.656;37.422;2022-09-09T21:46:31;100634.44;;;3.36
28803;BMP280;15949;55.656;37.422;2022-09-09T21:51:36;100633.63;;;3.32
28803;BMP280;15949;55.656;37.422;2022-09-09T21:56:42;100634.00;;;3.31
28803;BMP280;15949;55.656;37.422;2022-09-09T22:01:48;100638.41;;;3.27
28803;BMP280;15949;55.656;37.422;2022-09-09T22:06:53;100641.69;;;3.24
28803;BMP280;15949;55.656;37.422;2022-09-09T22:11:59;100638.66;;;3.22
28803;BMP280;15949;55.656;37.422;2022-09-09T22:17:04;100641.22;;;3.18
28803;BMP280;15949;55.656;37.422;2022-09-09T22:22:10;100636.97;;;3.13
28803;BMP280;15949;55.656;37.422;2022-09-09T22:27:16;100636.13;;;3.09
28803;BMP280;15949;55.656;37.422;2022-09-09T22:32:21;100640.44;;;3.02
28803;BMP280;15949;55.656;37.422;2022-09-09T22:37:27;100642.91;;;2.95
28803;BMP280;15949;55.656;37.422;2022-09-09T22:42:32;100635.69;;;2.91
28803;BMP280;15949;55.656;37.422;2022-09-09T22:47:39;100644.28;;;2.88
28803;BMP280;15949;55.656;37.422;2022-09-09T22:52:47;100643.84;;;2.86
28803;BMP280;15949;55.656;37.422;2022-09-09T22:57:53;100648.66;;;2.84
28803;BMP280;15949;55.656;37.422;2022-09-09T23:03:00;100647.31;;;2.75
28803;BMP280;15949;55.656;37.422;2022-09-09T23:08:05;100649.59;;;2.76
28803;BMP280;15949;55.656;37.422;2022-09-09T23:13:11;100649.84;;;2.71
28803;BMP280;15949;55.656;37.422;2022-09-09T23:18:17;100656.22;;;2.70
28803;BMP280;15949;55.656;37.422;2022-09-09T23:23:22;100647.91;;;2.68
28803;BMP280;15949;55.656;37.422;2022-09-09T23:28:30;100644.84;;;2.66
28803;BMP280;15949;55.656;37.422;2022-09-09T23:33:36;100650.78;;;2.63
28803;BMP280;15949;55.656;37.422;2022-09-09T23:38:42;100647.28;;;2.59
28803;BMP280;15949;55.656;37.422;2022-09-09T23:43:48;100652.53;;;2.59
28803;BMP280;15949;55.656;37.422;2022-09-09T23:48:55;100657.81;;;2.59
28803;BMP280;15949;55.656;37.422;2022-09-09T23:54:03;100664.06;;;2.54
28803;BMP280;15949;55.656;37.422;2022-09-09T23:59:09;100652.63;;;2.46
